SNOW

Not for real navigation. The accuracy of this data is not assured See disclaimer for more information



ICAO NAME COUNTRY WIND Kt GUST Kt VIS m TEMP/DEW C BARO METAR
SCRM 31 41 1200 0/0 28.61 SCRM 262100Z 32031G41KT 1200 -BLSN OVC008 M00/// Q0969
UIUU Ulan-Ude Russia 3 0 2500 0/-2 30.15 UIUU 262130Z 24003KT 200V260 2500 -SHSN OVC022CB 00/M02 Q1021 R26/CLRD60 NOSIG RMK QFE721/0962
UIBB Bratsk / Irkutsk Russia 3 0 3800 -2/-2 30.12 UIBB 262130Z 26003KT 3800 -SHSNRA BKN004 OVC013CB M02/M02 Q1020 RESHRASN R30/590530 NOSIG RMK QBB120
CYPC Paulatuk Airport Canada 13 0 4800 1/1 29.98 CYPC 262100Z 31013KT 3SM -SN OVC006 01/01 A2998 RMK SC8 CIG RAG SLP153
USRR Surgut Russia 4 0 6000 2/2 30.47 USRR 262130Z 02004KT 6000 -SHRA BKN004 BKN019CB 02/02 Q1032 R07/250255 TEMPO 2000 SHSNRA BR BKN002 B

Show more